Time;durP1;ratioP1;P1;durP2;ratioP2;P2;SDS_P1;SDS_P2;PMS_P1;PMS_P2;Temp;Humidity;BMP_temperature;BMP_pressure;BME280_temperature;BME280_humidity;BME280_pressure;Samples;Min_cycle;Max_cycle;Signal;HPM_P1;HPM_P2
2023/07/10 00:01:43;;;;;;;21.17;17.83;;;21.70;99.90;;;;;;5072044;28;20548;-75
2023/07/10 00:04:20;;;;;;;25.38;18.15;;;21.70;99.90;;;;;;5071265;28;20177;-76
2023/07/10 00:06:46;;;;;;;26.23;17.45;;;21.70;99.90;;;;;;5072057;28;20261;-74
2023/07/10 00:09:13;;;;;;;23.08;17.30;;;21.60;99.90;;;;;;5071566;28;20209;-75
2023/07/10 00:11:40;;;;;;;22.30;16.63;;;21.60;99.90;;;;;;5053810;28;20668;-75
2023/07/10 00:14:15;;;;;;;34.35;16.50;;;21.60;99.90;;;;;;5070268;28;20209;-74
2023/07/10 00:16:40;;;;;;;22.90;17.23;;;21.60;99.90;;;;;;5071907;28;20539;-74
2023/07/10 00:19:11;;;;;;;26.30;16.77;;;21.60;99.90;;;;;;5071571;28;20206;-74
2023/07/10 00:21:37;;;;;;;19.85;17.77;;;21.70;99.90;;;;;;5071800;28;20170;-74
2023/07/10 00:24:03;;;;;;;24.90;18.63;;;21.70;99.90;;;;;;5071149;28;20197;-74
2023/07/10 00:26:29;;;;;;;25.75;18.35;;;21.70;99.90;;;;;;5071550;28;20185;-75
2023/07/10 00:28:57;;;;;;;27.63;18.30;;;21.70;99.90;;;;;;5071450;28;20197;-74
2023/07/10 00:31:27;;;;;;;23.48;18.30;;;21.60;99.90;;;;;;5071565;28;20303;-74
2023/07/10 00:33:53;;;;;;;24.60;19.05;;;21.60;99.90;;;;;;5070664;28;20209;-74
2023/07/10 00:36:33;;;;;;;26.90;20.83;;;21.60;99.90;;;;;;5071394;28;20166;-74
2023/07/10 00:39:17;;;;;;;32.47;23.10;;;21.60;99.90;;;;;;5071107;28;20223;-75
2023/07/10 00:41:45;;;;;;;26.13;18.63;;;21.60;99.90;;;;;;5051425;28;20167;-74
2023/07/10 00:44:12;;;;;;;29.50;20.23;;;21.60;99.90;;;;;;5033108;28;20266;-74
2023/07/10 00:46:44;;;;;;;30.00;20.25;;;21.70;99.90;;;;;;5065737;28;20240;-74
2023/07/10 00:49:22;;;;;;;32.10;20.70;;;21.60;99.90;;;;;;5071068;28;20190;-73
2023/07/10 00:52:09;;;;;;;27.70;21.60;;;21.60;99.90;;;;;;5053173;28;20265;-75
2023/07/10 00:54:39;;;;;;;37.67;21.75;;;21.60;99.90;;;;;;5070910;28;20304;-75
2023/07/10 00:57:14;;;;;;;34.80;21.38;;;21.50;99.90;;;;;;5071113;28;20178;-74
2023/07/10 00:59:41;;;;;;;32.22;21.20;;;21.50;99.90;;;;;;5071150;28;20228;-73
2023/07/10 01:02:12;;;;;;;28.35;20.85;;;21.50;99.90;;;;;;5070648;28;20611;-74
2023/07/10 01:04:41;;;;;;;23.65;20.10;;;21.40;99.90;;;;;;5053021;28;20193;-74
2023/07/10 01:07:12;;;;;;;25.20;20.92;;;21.40;99.90;;;;;;5070961;28;20202;-74
2023/07/10 01:09:46;;;;;;;27.27;20.35;;;21.50;99.90;;;;;;5071088;28;20204;-74
2023/07/10 01:12:12;;;;;;;32.45;21.33;;;21.40;99.90;;;;;;5070883;28;20173;-74
2023/07/10 01:14:38;;;;;;;26.98;20.10;;;21.40;99.90;;;;;;5070932;28;20735;-74
2023/07/10 01:17:06;;;;;;;29.58;20.13;;;21.40;99.90;;;;;;5071120;28;20654;-75
2023/07/10 01:19:33;;;;;;;26.70;21.52;;;21.40;99.90;;;;;;5070985;28;20205;-75
2023/07/10 01:21:59;;;;;;;29.00;20.75;;;21.40;99.90;;;;;;5070926;28;20232;-75
2023/07/10 01:24:25;;;;;;;27.13;20.73;;;21.40;99.90;;;;;;5070994;28;20177;-74
2023/07/10 01:26:52;;;;;;;28.70;21.55;;;21.40;99.90;;;;;;5074970;28;20729;-74
2023/07/10 01:29:42;;;;;;;27.80;20.35;;;21.40;99.90;;;;;;5074365;28;20251;-75
2023/07/10 01:32:12;;;;;;;25.70;21.97;;;21.40;99.90;;;;;;5074426;28;20192;-75
2023/07/10 01:34:53;;;;;;;30.13;23.05;;;21.40;99.90;;;;;;5074777;28;20198;-75
2023/07/10 01:37:19;;;;;;;29.13;20.95;;;21.40;99.90;;;;;;5074603;28;20166;-75
2023/07/10 01:39:47;;;;;;;29.10;22.17;;;21.40;99.90;;;;;;5074583;28;20205;-75
2023/07/10 01:42:13;;;;;;;28.67;21.58;;;21.40;99.90;;;;;;5074442;28;20186;-75
2023/07/10 01:44:41;;;;;;;29.38;21.92;;;21.30;99.90;;;;;;5074242;28;20182;-75
2023/07/10 01:47:09;;;;;;;28.77;21.38;;;21.20;99.90;;;;;;5074183;28;20186;-74
2023/07/10 01:49:50;;;;;;;24.40;21.77;;;21.20;99.90;;;;;;5074385;28;20198;-74
2023/07/10 01:52:19;;;;;;;25.80;22.42;;;21.30;99.90;;;;;;5074031;28;20515;-74
2023/07/10 01:54:45;;;;;;;25.95;23.23;;;21.20;99.90;;;;;;5074372;28;20216;-74
2023/07/10 01:57:13;;;;;;;28.17;23.02;;;21.20;99.90;;;;;;5074119;28;20641;-75
2023/07/10 01:59:39;;;;;;;29.85;23.35;;;21.20;99.90;;;;;;5074157;28;20312;-75
2023/07/10 02:02:05;;;;;;;28.92;23.40;;;21.20;99.90;;;;;;5073785;28;20193;-75
2023/07/10 02:04:32;;;;;;;31.73;23.85;;;21.20;99.90;;;;;;5073956;28;20571;-74
2023/07/10 02:06:57;;;;;;;28.63;22.40;;;21.10;99.90;;;;;;5074156;28;20197;-74
2023/07/10 02:09:24;;;;;;;28.15;23.05;;;21.10;99.90;;;;;;5073905;28;20605;-75
2023/07/10 02:11:50;;;;;;;27.25;22.83;;;21.10;99.90;;;;;;5073903;28;20182;-74
2023/07/10 02:14:16;;;;;;;26.45;23.63;;;21.10;99.90;;;;;;5073463;28;20248;-75
2023/07/10 02:16:42;;;;;;;25.75;22.85;;;21.10;99.90;;;;;;5073586;28;20216;-75
2023/07/10 02:19:08;;;;;;;39.03;24.23;;;21.10;99.90;;;;;;5074121;28;20206;-75
2023/07/10 02:21:34;;;;;;;30.02;23.83;;;21.10;99.90;;;;;;5073922;28;20609;-74
2023/07/10 02:24:00;;;;;;;31.48;22.75;;;21.00;99.90;;;;;;5073562;28;20200;-74
2023/07/10 02:26:27;;;;;;;32.88;23.02;;;21.00;99.90;;;;;;5073590;28;20185;-74
2023/07/10 02:28:53;;;;;;;25.02;21.30;;;20.90;99.90;;;;;;5055746;28;20202;-74
2023/07/10 02:31:18;;;;;;;26.33;21.80;;;20.90;99.90;;;;;;5073630;28;20185;-74
2023/07/10 02:33:44;;;;;;;25.83;22.10;;;20.80;99.90;;;;;;5072355;28;20190;-75
2023/07/10 02:36:09;;;;;;;25.92;22.65;;;20.70;99.90;;;;;;5072591;28;20166;-75
2023/07/10 02:38:35;;;;;;;30.15;22.23;;;20.80;99.90;;;;;;5073533;28;20273;-74
2023/07/10 02:41:01;;;;;;;31.70;23.77;;;20.70;99.90;;;;;;5073564;28;20170;-75
2023/07/10 02:43:27;;;;;;;35.05;24.83;;;20.70;99.90;;;;;;5071889;28;20261;-74
2023/07/10 02:45:53;;;;;;;25.45;22.80;;;20.70;99.90;;;;;;5073423;28;20650;-75
2023/07/10 02:48:18;;;;;;;29.98;25.25;;;20.70;99.90;;;;;;5073175;28;20194;-74
2023/07/10 02:50:44;;;;;;;30.52;25.10;;;20.70;99.90;;;;;;5072910;28;20650;-75
2023/07/10 02:53:10;;;;;;;34.22;26.20;;;20.60;99.90;;;;;;5054751;28;20184;-75
2023/07/10 02:55:35;;;;;;;32.33;25.42;;;20.60;99.90;;;;;;5073252;28;20177;-75
2023/07/10 02:58:02;;;;;;;32.80;25.60;;;20.50;99.90;;;;;;5073133;28;20173;-75
2023/07/10 03:00:28;;;;;;;33.80;23.90;;;20.50;99.90;;;;;;5072766;28;20178;-75
2023/07/10 03:02:54;;;;;;;27.02;23.10;;;20.50;99.90;;;;;;5073001;28;20216;-75
2023/07/10 03:05:24;;;;;;;30.98;23.50;;;20.50;99.90;;;;;;5072748;28;20254;-74
2023/07/10 03:07:50;;;;;;;28.90;22.52;;;20.60;99.90;;;;;;5072994;28;20210;-75
2023/07/10 03:10:17;;;;;;;30.83;22.23;;;20.60;99.90;;;;;;5072256;28;20597;-75
2023/07/10 03:12:42;;;;;;;30.45;21.75;;;20.50;99.90;;;;;;5072556;28;20178;-75
2023/07/10 03:15:08;;;;;;;22.45;19.95;;;20.50;99.90;;;;;;5054578;28;20753;-75
2023/07/10 03:17:34;;;;;;;28.67;19.85;;;20.50;99.90;;;;;;5072845;28;20205;-74
2023/07/10 03:19:59;;;;;;;26.42;18.38;;;20.50;99.90;;;;;;5072728;28;20210;-75
2023/07/10 03:22:25;;;;;;;29.20;19.55;;;20.50;99.90;;;;;;5072201;28;20538;-75
2023/07/10 03:24:57;;;;;;;26.38;19.02;;;20.50;99.90;;;;;;5072619;28;20174;-74
2023/07/10 03:27:24;;;;;;;26.65;18.75;;;20.50;99.90;;;;;;5074521;28;20193;-78
2023/07/10 03:29:51;;;;;;;23.33;17.95;;;20.50;99.90;;;;;;5094062;28;20216;-76
2023/07/10 03:32:17;;;;;;;20.92;18.08;;;20.40;99.90;;;;;;5094697;28;20174;-78
2023/07/10 03:34:42;;;;;;;22.75;18.38;;;20.40;99.90;;;;;;5093066;28;20202;-78
2023/07/10 03:37:09;;;;;;;24.98;18.02;;;20.50;99.90;;;;;;5093711;28;20166;-77
2023/07/10 03:39:35;;;;;;;23.20;18.50;;;20.50;99.90;;;;;;5094602;28;20194;-79
2023/07/10 03:42:01;;;;;;;24.70;18.48;;;20.40;99.90;;;;;;5095678;28;20174;-78
2023/07/10 03:44:27;;;;;;;22.58;17.55;;;20.40;99.90;;;;;;5095826;28;20174;-78
2023/07/10 03:46:53;;;;;;;23.58;17.90;;;20.40;99.90;;;;;;5078302;28;20271;-79
2023/07/10 03:49:19;;;;;;;27.15;18.73;;;20.40;99.90;;;;;;5076376;28;20201;-80
2023/07/10 03:51:45;;;;;;;27.23;18.97;;;20.30;99.90;;;;;;5094106;28;20178;-78
2023/07/10 03:54:10;;;;;;;26.17;19.73;;;20.30;99.90;;;;;;5093037;28;20198;-75
2023/07/10 03:56:36;;;;;;;27.15;19.00;;;20.30;99.90;;;;;;5075380;28;20174;-77
2023/07/10 03:59:06;;;;;;;24.83;19.05;;;20.20;99.90;;;;;;5092574;28;20194;-77
2023/07/10 04:01:32;;;;;;;31.73;20.23;;;20.10;99.90;;;;;;5092467;28;20585;-78
2023/07/10 04:03:59;;;;;;;32.00;21.23;;;20.00;99.90;;;;;;5092556;28;20158;-81
2023/07/10 04:06:25;;;;;;;31.90;21.33;;;20.00;99.90;;;;;;5093253;28;20243;-77
2023/07/10 04:08:51;;;;;;;26.83;21.23;;;20.00;99.90;;;;;;5093715;28;20198;-80
2023/07/10 04:11:19;;;;;;;26.67;19.17;;;19.90;99.90;;;;;;5088932;28;20258;-74
2023/07/10 04:13:46;;;;;;;32.40;20.83;;;19.90;99.90;;;;;;5071458;28;20198;-72
2023/07/10 04:16:16;;;;;;;30.13;19.20;;;19.90;99.90;;;;;;5071432;28;20174;-75
2023/07/10 04:18:43;;;;;;;26.27;18.27;;;19.80;99.90;;;;;;5070968;28;20209;-75
2023/07/10 04:21:26;;;;;;;28.92;20.23;;;19.80;99.90;;;;;;5071524;28;20272;-75
2023/07/10 04:23:52;;;;;;;30.40;20.63;;;19.80;99.90;;;;;;5071341;28;20183;-75
2023/07/10 04:26:24;;;;;;;32.77;19.83;;;19.80;99.90;;;;;;5071170;28;20185;-75
2023/07/10 04:28:51;;;;;;;27.83;20.87;;;19.80;99.90;;;;;;5071693;28;20193;-75
2023/07/10 04:31:18;;;;;;;26.60;20.00;;;19.80;99.90;;;;;;5071288;28;20174;-75
2023/07/10 04:33:44;;;;;;;32.63;20.13;;;19.80;99.90;;;;;;5070955;28;20288;-76
2023/07/10 04:36:10;;;;;;;22.33;18.17;;;19.80;99.90;;;;;;5070891;28;20663;-75
2023/07/10 04:38:36;;;;;;;28.60;18.23;;;19.80;99.90;;;;;;5071029;28;20288;-75
2023/07/10 04:41:04;;;;;;;25.80;19.33;;;19.80;99.90;;;;;;5053365;28;20190;-75
2023/07/10 04:43:31;;;;;;;24.80;18.63;;;19.80;99.90;;;;;;5071057;28;20185;-76
2023/07/10 04:46:03;;;;;;;27.07;18.67;;;19.80;99.90;;;;;;5071332;28;20177;-75
2023/07/10 04:48:29;;;;;;;24.20;16.57;;;19.80;99.90;;;;;;5071126;28;20362;-76
2023/07/10 04:50:57;;;;;;;21.90;16.13;;;19.80;99.90;;;;;;5070452;28;20655;-75
2023/07/10 04:53:23;;;;;;;17.57;14.50;;;19.80;99.90;;;;;;5050529;28;20181;-76
2023/07/10 04:55:52;;;;;;;20.83;14.13;;;19.80;99.90;;;;;;5053236;28;20705;-75
2023/07/10 04:58:18;;;;;;;21.60;12.83;;;19.80;99.90;;;;;;5054788;28;20190;-77
2023/07/10 05:00:44;;;;;;;18.87;12.53;;;19.70;99.90;;;;;;5070503;28;20177;-75
2023/07/10 05:03:10;;;;;;;15.63;12.77;;;19.70;99.90;;;;;;5070610;28;20245;-77
2023/07/10 05:05:36;;;;;;;18.83;12.15;;;19.70;99.90;;;;;;5052904;28;20709;-75
2023/07/10 05:08:02;;;;;;;13.23;9.77;;;19.70;99.90;;;;;;5052894;28;20210;-75
2023/07/10 05:10:28;;;;;;;16.60;10.70;;;19.80;99.90;;;;;;5070631;28;20198;-77
2023/07/10 05:12:53;;;;;;;12.47;9.73;;;19.80;99.90;;;;;;5070738;28;20184;-77
2023/07/10 05:15:21;;;;;;;13.40;9.40;;;19.80;99.90;;;;;;5070447;28;20225;-75
2023/07/10 05:17:47;;;;;;;15.10;9.77;;;19.80;99.90;;;;;;5070444;28;20168;-75
2023/07/10 05:20:13;;;;;;;11.70;9.03;;;19.80;99.90;;;;;;5052577;28;20213;-76
2023/07/10 05:22:41;;;;;;;14.97;10.03;;;19.80;99.90;;;;;;5052346;28;20174;-77
2023/07/10 05:25:08;;;;;;;12.40;8.87;;;19.90;99.90;;;;;;5070573;28;20544;-75
2023/07/10 05:27:33;;;;;;;9.63;8.20;;;19.80;99.90;;;;;;5052496;28;20265;-76
2023/07/10 05:29:59;;;;;;;14.53;9.03;;;19.90;99.90;;;;;;5052701;28;20749;-76
2023/07/10 05:32:24;;;;;;;11.50;8.23;;;20.00;99.90;;;;;;5070126;28;20170;-76
2023/07/10 05:34:50;;;;;;;16.70;8.93;;;20.00;99.90;;;;;;5052278;28;20225;-76
2023/07/10 05:37:15;;;;;;;12.40;8.50;;;20.10;99.90;;;;;;5070449;28;20630;-76
2023/07/10 05:39:41;;;;;;;12.93;8.90;;;20.20;99.90;;;;;;5070465;28;20190;-76
2023/07/10 05:42:07;;;;;;;9.83;8.93;;;20.20;99.90;;;;;;5052254;28;20637;-76
2023/07/10 05:44:33;;;;;;;12.80;8.47;;;20.30;99.90;;;;;;5041097;28;20182;-77
2023/07/10 05:46:58;;;;;;;11.15;8.27;;;20.40;99.90;;;;;;5050026;28;20526;-77
2023/07/10 05:49:24;;;;;;;14.23;9.68;;;20.30;99.90;;;;;;5070286;28;20205;-76
2023/07/10 05:51:51;;;;;;;10.17;8.03;;;20.50;99.90;;;;;;5070451;28;20174;-77
2023/07/10 05:54:19;;;;;;;12.87;8.33;;;20.50;99.90;;;;;;5051821;28;20730;-76
2023/07/10 05:57:15;;;;;;;9.30;7.43;;;20.40;99.90;;;;;;5070420;28;20162;-76
2023/07/10 05:59:40;;;;;;;11.53;8.37;;;20.40;99.90;;;;;;5048704;28;20198;-75
2023/07/10 06:02:10;;;;;;;9.30;7.97;;;20.40;99.90;;;;;;5070310;28;20174;-75
2023/07/10 06:04:35;;;;;;;12.47;9.47;;;20.50;99.90;;;;;;5051975;28;20174;-76
2023/07/10 06:07:01;;;;;;;10.53;9.50;;;20.50;99.90;;;;;;5070572;28;20208;-75
2023/07/10 06:09:27;;;;;;;10.38;9.32;;;20.60;99.90;;;;;;5070085;28;20347;-77
2023/07/10 06:11:52;;;;;;;12.85;8.60;;;20.80;99.90;;;;;;5071347;28;20219;-77
2023/07/10 06:14:18;;;;;;;9.25;8.35;;;20.90;99.90;;;;;;5072837;28;20208;-76
2023/07/10 06:16:44;;;;;;;11.52;10.38;;;21.40;99.90;;;;;;5072011;28;20601;-77
2023/07/10 06:19:09;;;;;;;11.98;8.45;;;21.90;99.90;;;;;;5073569;28;20202;-75
2023/07/10 06:21:35;;;;;;;10.40;8.13;;;22.40;99.90;;;;;;5055662;28;20224;-76
2023/07/10 06:24:00;;;;;;;11.55;7.80;;;22.50;99.90;;;;;;5073465;28;20178;-76
2023/07/10 06:26:26;;;;;;;12.07;8.35;;;22.40;99.90;;;;;;5073314;28;20171;-75
2023/07/10 06:28:52;;;;;;;11.80;8.07;;;22.30;99.90;;;;;;5073234;28;20197;-75
2023/07/10 06:31:17;;;;;;;11.10;9.32;;;22.40;99.90;;;;;;5073632;28;20714;-76
2023/07/10 06:33:43;;;;;;;13.48;8.57;;;22.40;99.90;;;;;;5055073;28;20202;-76
2023/07/10 06:36:09;;;;;;;9.95;7.35;;;22.80;99.90;;;;;;5073404;28;20304;-75
2023/07/10 06:38:35;;;;;;;8.65;7.25;;;22.90;99.90;;;;;;5073185;28;20719;-76
2023/07/10 06:41:01;;;;;;;10.90;8.57;;;23.00;99.90;;;;;;5055465;28;20178;-76
2023/07/10 06:43:27;;;;;;;10.02;7.60;;;23.00;99.90;;;;;;5054837;28;20174;-76
2023/07/10 06:45:55;;;;;;;7.88;6.60;;;23.00;99.90;;;;;;5073022;28;20544;-75
2023/07/10 06:48:20;;;;;;;9.20;8.32;;;23.40;99.90;;;;;;5073164;28;20184;-76
2023/07/10 06:50:50;;;;;;;10.82;9.35;;;23.70;99.90;;;;;;5071721;28;20182;-76
2023/07/10 06:53:15;;;;;;;9.45;8.45;;;23.90;99.90;;;;;;5053705;28;20552;-76
2023/07/10 06:55:44;;;;;;;10.43;7.43;;;24.00;99.90;;;;;;5053927;28;20174;-76
2023/07/10 06:58:12;;;;;;;9.55;6.15;;;23.90;99.90;;;;;;5072917;28;20190;-76
2023/07/10 07:00:39;;;;;;;9.40;6.63;;;23.80;99.90;;;;;;5072178;28;20175;-76
2023/07/10 07:03:05;;;;;;;10.00;7.45;;;23.80;99.90;;;;;;5071951;28;20182;-76
2023/07/10 07:05:31;;;;;;;8.25;6.85;;;23.70;99.90;;;;;;5071011;28;20265;-76
2023/07/10 07:07:56;;;;;;;8.90;7.00;;;23.40;99.90;;;;;;5072872;28;20257;-76
2023/07/10 07:10:23;;;;;;;10.15;7.68;;;22.90;99.90;;;;;;5072527;28;20244;-76
2023/07/10 07:12:48;;;;;;;7.93;7.22;;;22.50;99.90;;;;;;5072313;28;20174;-76
2023/07/10 07:15:14;;;;;;;11.10;7.22;;;22.50;99.90;;;;;;5054655;28;20653;-76
2023/07/10 07:17:40;;;;;;;10.57;6.78;;;22.40;99.90;;;;;;5072328;28;20181;-75
2023/07/10 07:20:07;;;;;;;8.27;6.18;;;22.40;99.90;;;;;;5072139;28;20208;-77
2023/07/10 07:22:33;;;;;;;9.35;6.68;;;22.50;99.90;;;;;;5071505;28;20166;-76
2023/07/10 07:24:58;;;;;;;9.30;5.53;;;22.70;99.90;;;;;;5052544;28;20238;-76
2023/07/10 07:27:24;;;;;;;8.30;5.30;;;23.10;99.90;;;;;;5072094;28;20173;-76
2023/07/10 07:29:51;;;;;;;9.65;4.90;;;23.30;99.90;;;;;;5072096;28;20202;-76
2023/07/10 07:32:18;;;;;;;7.25;5.18;;;23.60;99.90;;;;;;5054277;28;20287;-76
2023/07/10 07:34:45;;;;;;;8.35;4.90;;;23.90;99.90;;;;;;5071979;28;20205;-77
2023/07/10 07:37:11;;;;;;;7.00;4.90;;;24.50;99.90;;;;;;5072046;28;20258;-77
2023/07/10 07:39:37;;;;;;;6.55;4.68;;;24.60;99.90;;;;;;5071927;28;20265;-76
2023/07/10 07:42:02;;;;;;;5.43;4.13;;;24.60;99.90;;;;;;5072326;28;20685;-77
2023/07/10 07:44:28;;;;;;;6.97;4.93;;;24.70;99.90;;;;;;5053538;28;20182;-76
2023/07/10 07:46:54;;;;;;;6.28;4.75;;;24.60;99.90;;;;;;5072175;28;20174;-76
2023/07/10 07:49:23;;;;;;;4.53;4.13;;;24.50;99.90;;;;;;5072061;28;20199;-76
2023/07/10 07:51:50;;;;;;;6.47;4.35;;;24.60;99.90;;;;;;5071928;28;20171;-76
2023/07/10 07:54:16;;;;;;;7.25;5.18;;;24.90;99.90;;;;;;5071306;28;20284;-76
2023/07/10 07:56:41;;;;;;;6.70;5.10;;;25.10;99.90;;;;;;5070089;28;20217;-76
2023/07/10 07:59:07;;;;;;;7.10;4.78;;;25.40;99.90;;;;;;5071704;28;20198;-77
2023/07/10 08:01:33;;;;;;;7.05;4.90;;;25.90;99.90;;;;;;5054061;28;20174;-76
2023/07/10 08:03:59;;;;;;;5.40;4.10;;;26.30;99.90;;;;;;5071561;28;20198;-76
2023/07/10 08:06:29;;;;;;;7.05;4.45;;;26.80;99.90;;;;;;5071613;28;20197;-76
2023/07/10 08:08:55;;;;;;;4.95;4.28;;;27.40;99.90;;;;;;5071538;28;20204;-77
2023/07/10 08:11:21;;;;;;;7.22;5.25;;;27.70;99.90;;;;;;5071163;28;20324;-76
2023/07/10 08:13:47;;;;;;;8.85;4.10;;;27.80;99.90;;;;;;5071027;28;20297;-77
2023/07/10 08:16:13;;;;;;;5.70;4.57;;;27.80;99.90;;;;;;5071549;28;20193;-77
2023/07/10 08:18:40;;;;;;;8.63;4.57;;;28.00;99.90;;;;;;5071626;28;20708;-76
2023/07/10 08:21:09;;;;;;;4.03;3.63;;;28.20;99.90;;;;;;5072263;28;20536;-76
2023/07/10 08:23:35;;;;;;;7.68;4.40;;;27.60;99.90;;;;;;5070977;28;20166;-77
2023/07/10 08:26:01;;;;;;;5.05;3.60;;;27.10;99.90;;;;;;5071531;28;20220;-76
2023/07/10 08:28:27;;;;;;;4.68;3.65;;;27.30;99.90;;;;;;5070818;28;20201;-77
2023/07/10 08:30:53;;;;;;;4.45;3.70;;;27.80;99.90;;;;;;5069835;28;20637;-76
2023/07/10 08:33:18;;;;;;;5.35;3.95;;;28.40;99.90;;;;;;5071620;28;20176;-77
2023/07/10 08:35:54;;;;;;;5.35;3.55;;;28.60;99.90;;;;;;5070777;28;20171;-76
2023/07/10 08:38:19;;;;;;;8.18;3.83;;;28.80;99.90;;;;;;5071338;28;20657;-77
2023/07/10 08:40:49;;;;;;;4.63;3.50;;;28.60;99.90;;;;;;5071702;28;20269;-78
2023/07/10 08:43:33;;;;;;;4.18;3.22;;;28.60;99.90;;;;;;5070904;28;20173;-77
2023/07/10 08:46:04;;;;;;;5.47;3.65;;;28.80;99.90;;;;;;5071550;28;20265;-77
2023/07/10 08:48:35;;;;;;;4.55;3.20;;;29.30;99.90;;;;;;5052613;28;20685;-77
2023/07/10 08:51:20;;;;;;;3.90;3.42;;;29.80;99.90;;;;;;5070667;28;20540;-76
2023/07/10 08:54:09;;;;;;;5.55;3.22;;;30.50;99.90;;;;;;5069974;28;20206;-77
2023/07/10 08:57:03;;;;;;;7.80;3.50;;;30.40;99.90;;;;;;5071164;28;20166;-77
2023/07/10 08:59:48;;;;;;;6.53;4.03;;;29.50;99.90;;;;;;5070359;28;20189;-76
2023/07/10 09:02:20;;;;;;;4.00;3.67;;;28.50;99.90;;;;;;5069051;28;20170;-74
2023/07/10 09:04:48;;;;;;;6.72;3.90;;;28.50;99.90;;;;;;5070873;28;20549;-75
2023/07/10 09:07:14;;;;;;;4.82;3.65;;;28.80;99.90;;;;;;5071275;28;20196;-76
2023/07/10 09:09:51;;;;;;;3.88;3.40;;;29.00;99.90;;;;;;5070767;28;20259;-76
2023/07/10 09:12:30;;;;;;;3.45;3.20;;;28.80;99.90;;;;;;5070706;28;20166;-76
2023/07/10 09:15:01;;;;;;;6.63;2.92;;;28.20;99.90;;;;;;5070592;28;20600;-74
2023/07/10 09:17:35;;;;;;;4.03;3.47;;;27.90;99.90;;;;;;5070812;28;20174;-77
2023/07/10 09:20:05;;;;;;;3.88;3.03;;;27.70;99.90;;;;;;5070804;28;20205;-76
2023/07/10 09:22:33;;;;;;;4.07;3.28;;;28.10;99.90;;;;;;5070048;28;20204;-75
2023/07/10 09:24:58;;;;;;;2.80;2.60;;;28.80;99.90;;;;;;5052761;28;20177;-74
2023/07/10 09:27:24;;;;;;;3.83;3.33;;;29.40;99.90;;;;;;5070505;28;20633;-76
2023/07/10 09:29:52;;;;;;;3.00;2.75;;;29.50;99.90;;;;;;5070437;28;20205;-75
2023/07/10 09:32:19;;;;;;;3.33;2.72;;;30.00;99.90;;;;;;5070588;28;20645;-77
2023/07/10 09:34:58;;;;;;;2.80;2.35;;;30.60;99.90;;;;;;5069744;28;20221;-74
2023/07/10 09:37:31;;;;;;;2.63;2.15;;;31.00;99.90;;;;;;5070532;28;20158;-75
2023/07/10 09:39:56;;;;;;;4.00;2.80;;;30.80;99.90;;;;;;5069355;28;20583;-76
2023/07/10 09:42:32;;;;;;;2.92;2.55;;;30.90;99.90;;;;;;5070591;28;20170;-75
2023/07/10 09:44:59;;;;;;;3.65;3.22;;;30.40;99.90;;;;;;5070677;28;20178;-76
2023/07/10 09:47:40;;;;;;;3.50;3.05;;;29.90;99.90;;;;;;5073835;28;20182;-75
2023/07/10 09:50:13;;;;;;;3.22;2.50;;;29.70;99.90;;;;;;5074458;28;20197;-73
2023/07/10 09:52:40;;;;;;;3.50;2.60;;;29.70;99.90;;;;;;5073982;28;20927;-76
2023/07/10 09:55:15;;;;;;;2.42;2.20;;;30.00;99.90;;;;;;5074259;28;20294;-75
2023/07/10 09:57:58;;;;;;;4.50;2.60;;;30.10;99.90;;;;;;5074064;28;20257;-74
2023/07/10 10:00:25;;;;;;;6.13;2.95;;;30.10;99.90;;;;;;5074025;28;20197;-75
2023/07/10 10:03:03;;;;;;;3.28;2.80;;;30.00;99.90;;;;;;5073836;28;20237;-75
2023/07/10 10:05:30;;;;;;;2.60;2.40;;;30.00;99.90;;;;;;5073981;28;20181;-76
2023/07/10 10:08:18;;;;;;;2.80;2.35;;;30.30;99.90;;;;;;5073995;28;20666;-76
2023/07/10 10:10:43;;;;;;;3.20;2.90;;;30.70;99.90;;;;;;5073601;28;20188;-76
2023/07/10 10:13:23;;;;;;;2.92;2.47;;;30.70;99.90;;;;;;5073641;28;20174;-75
2023/07/10 10:16:03;;;;;;;2.58;2.35;;;30.70;99.90;;;;;;5073849;28;20525;-75
2023/07/10 10:18:50;;;;;;;3.83;2.40;;;30.90;99.90;;;;;;5073442;28;20746;-76
2023/07/10 10:21:17;;;;;;;3.08;2.78;;;31.20;99.90;;;;;;5073716;28;20170;-75
2023/07/10 10:23:46;;;;;;;3.05;2.65;;;31.40;99.90;;;;;;5073487;28;20250;-75
2023/07/10 10:26:24;;;;;;;7.63;2.65;;;31.30;99.90;;;;;;5073626;28;20174;-76
2023/07/10 10:29:04;;;;;;;2.92;2.42;;;31.20;99.90;;;;;;5073422;28;20541;-75
2023/07/10 10:31:41;;;;;;;2.75;2.33;;;31.00;99.90;;;;;;5073682;28;20201;-75
2023/07/10 10:34:21;;;;;;;4.40;2.83;;;31.00;99.90;;;;;;5072992;28;20205;-76
2023/07/10 10:37:18;;;;;;;3.42;2.63;;;31.00;99.90;;;;;;5055513;28;20260;-76
2023/07/10 10:40:01;;;;;;;6.05;3.10;;;31.20;99.90;;;;;;5073204;28;20201;-75
2023/07/10 10:42:45;;;;;;;8.30;3.20;;;31.10;99.90;;;;;;5071024;28;20249;-76
2023/07/10 10:45:23;;;;;;;4.70;3.85;;;30.80;99.90;;;;;;5073403;28;20178;-74
2023/07/10 10:47:54;;;;;;;4.90;3.00;;;30.70;99.90;;;;;;5073671;28;20638;-77
2023/07/10 10:50:26;;;;;;;4.22;2.95;;;30.60;99.90;;;;;;5073008;28;20700;-75
2023/07/10 10:52:58;;;;;;;5.95;2.95;;;30.90;99.90;;;;;;5073046;28;20220;-75
2023/07/10 10:55:39;;;;;;;4.78;2.80;;;30.70;99.90;;;;;;5072971;28;20665;-74
2023/07/10 10:58:25;;;;;;;2.97;2.72;;;30.00;99.90;;;;;;5072598;28;20691;-76
2023/07/10 11:01:12;;;;;;;3.45;3.00;;;29.80;99.90;;;;;;5073116;28;20261;-75
2023/07/10 11:03:45;;;;;;;4.43;2.92;;;29.60;99.90;;;;;;5072724;28;20212;-75
2023/07/10 11:06:26;;;;;;;3.13;2.83;;;30.00;99.90;;;;;;5073165;28;20162;-75
2023/07/10 11:08:53;;;;;;;3.58;2.88;;;30.10;99.90;;;;;;5072882;28;20263;-76
2023/07/10 11:11:27;;;;;;;4.03;3.08;;;30.20;99.90;;;;;;5073135;28;20170;-75
2023/07/10 11:13:52;;;;;;;3.60;3.40;;;30.70;99.90;;;;;;5072152;28;20665;-74
2023/07/10 11:16:18;;;;;;;4.78;3.55;;;31.00;99.90;;;;;;5070706;28;20197;-75
2023/07/10 11:18:45;;;;;;;3.45;2.90;;;31.20;99.90;;;;;;5072295;28;20210;-73
2023/07/10 11:21:11;;;;;;;4.60;3.15;;;31.30;99.90;;;;;;5072507;28;20178;-75
2023/07/10 11:23:43;;;;;;;2.60;2.47;;;30.90;99.90;;;;;;5072140;28;20170;-76
2023/07/10 11:26:15;;;;;;;3.40;3.10;;;30.50;99.90;;;;;;5072074;28;20173;-74
2023/07/10 11:28:53;;;;;;;4.80;3.10;;;30.40;99.90;;;;;;5071885;28;20201;-75
2023/07/10 11:31:23;;;;;;;3.08;2.78;;;30.00;99.90;;;;;;5072216;28;20671;-76
2023/07/10 11:34:18;;;;;;;3.40;3.10;;;29.80;99.90;;;;;;5072099;28;20680;-73
2023/07/10 11:36:45;;;;;;;6.50;3.20;;;29.80;99.90;;;;;;5030835;28;20529;-74
2023/07/10 11:39:29;;;;;;;6.18;2.90;;;29.70;99.90;;;;;;5054172;28;20191;-75
2023/07/10 11:41:55;;;;;;;4.32;2.85;;;29.80;99.90;;;;;;5072496;28;20220;-76
2023/07/10 11:44:33;;;;;;;4.38;3.28;;;30.10;99.90;;;;;;5071833;28;20580;-75
2023/07/10 11:47:00;;;;;;;2.95;2.67;;;30.20;99.90;;;;;;5072029;28;20260;-73
2023/07/10 11:49:35;;;;;;;4.10;2.47;;;30.40;99.90;;;;;;5070385;28;20226;-75
2023/07/10 11:52:09;;;;;;;3.83;2.67;;;30.40;99.90;;;;;;5071478;28;20261;-76
2023/07/10 11:54:35;;;;;;;3.38;3.05;;;30.60;99.90;;;;;;5071333;28;20201;-76
2023/07/10 11:57:06;;;;;;;3.67;3.25;;;30.40;99.90;;;;;;5072013;28;20174;-75
2023/07/10 11:59:34;;;;;;;3.00;2.60;;;30.30;99.90;;;;;;5072028;28;20528;-74
2023/07/10 12:02:00;;;;;;;5.22;2.85;;;30.40;99.90;;;;;;5072116;28;20166;-76
2023/07/10 12:04:26;;;;;;;3.30;2.90;;;29.70;99.90;;;;;;5071253;28;20174;-75
2023/07/10 12:06:52;;;;;;;3.80;2.80;;;29.70;99.90;;;;;;5071817;28;20171;-75
2023/07/10 12:09:17;;;;;;;4.57;2.60;;;30.10;99.90;;;;;;5071759;28;20277;-74
2023/07/10 12:11:45;;;;;;;6.50;2.80;;;30.10;99.90;;;;;;5071581;28;20186;-77
2023/07/10 12:14:17;;;;;;;3.03;2.83;;;30.00;99.90;;;;;;5053249;28;20193;-76
2023/07/10 12:16:55;;;;;;;4.50;2.75;;;30.10;99.90;;;;;;5071301;28;20165;-73
2023/07/10 12:19:31;;;;;;;2.83;2.60;;;30.20;99.90;;;;;;5053549;28;20213;-77
2023/07/10 12:22:20;;;;;;;3.75;2.75;;;30.20;99.90;;;;;;5071075;28;20170;-75
2023/07/10 12:24:48;;;;;;;2.90;2.70;;;30.10;99.90;;;;;;5071310;28;20169;-75
2023/07/10 12:27:14;;;;;;;2.90;2.70;;;30.20;99.90;;;;;;5071588;28;20173;-76
2023/07/10 12:29:50;;;;;;;3.67;2.75;;;30.30;99.90;;;;;;5071260;28;20564;-75
2023/07/10 12:32:17;;;;;;;2.72;2.53;;;30.00;99.90;;;;;;5071285;28;20173;-77
2023/07/10 12:34:43;;;;;;;2.65;2.50;;;30.00;99.90;;;;;;5052904;28;20297;-71
2023/07/10 12:37:11;;;;;;;2.92;2.63;;;30.30;99.90;;;;;;5071381;28;20253;-76
2023/07/10 12:39:37;;;;;;;2.95;2.40;;;30.30;99.90;;;;;;5052888;28;20190;-77
2023/07/10 12:42:21;;;;;;;2.72;2.53;;;30.50;99.90;;;;;;5071243;28;20174;-76
2023/07/10 12:44:47;;;;;;;2.95;2.75;;;30.60;99.90;;;;;;5070975;28;20162;-74
2023/07/10 12:47:14;;;;;;;3.03;2.78;;;30.90;99.90;;;;;;5053358;28;20174;-72
2023/07/10 12:49:51;;;;;;;4.18;2.78;;;30.70;99.90;;;;;;5070981;28;20752;-77